Time;durP1;ratioP1;P1;durP2;ratioP2;P2;SDS_P1;SDS_P2;PMS_P1;PMS_P2;Temp;Humidity;BMP_temperature;BMP_pressure;BME280_temperature;BME280_humidity;BME280_pressure;Samples;Min_cycle;Max_cycle;Signal;HPM_P1;HPM_P2
2024/03/28 00:03:13;;;;;;;54.55;21.83;;;;;;;6.93;100.00;97596.97;10262389;29;20054;-79
2024/03/28 00:08:14;;;;;;;56.28;23.00;;;;;;;6.89;100.00;97592.97;10265023;28;20080;-77
2024/03/28 00:13:16;;;;;;;51.95;21.50;;;;;;;7.12;100.00;97593.91;10257768;29;20482;-78
2024/03/28 00:18:16;;;;;;;37.60;16.43;;;;;;;7.07;100.00;97604.25;10265166;28;20047;-77
2024/03/28 00:23:17;;;;;;;40.78;17.02;;;;;;;6.79;100.00;97601.09;10263775;28;20047;-77
2024/03/28 00:28:18;;;;;;;42.03;16.77;;;;;;;6.83;100.00;97592.59;10250655;28;20047;-77
2024/03/28 00:33:19;;;;;;;39.42;17.77;;;;;;;6.93;100.00;97586.28;10256763;28;20050;-77
2024/03/28 00:38:20;;;;;;;36.20;16.30;;;;;;;6.92;100.00;97581.97;10272809;28;20078;-77
2024/03/28 00:43:22;;;;;;;38.72;15.63;;;;;;;6.78;100.00;97576.28;10253460;29;20081;-77
2024/03/28 00:48:22;;;;;;;41.33;17.23;;;;;;;6.81;100.00;97583.09;10252737;28;20039;-77
2024/03/28 00:53:35;;;;;;;44.15;17.17;;;;;;;6.92;100.00;97584.63;10233248;29;20039;-77
2024/03/28 00:58:36;;;;;;;48.55;17.75;;;;;;;6.97;100.00;97585.78;10246144;28;20517;-77
2024/03/28 01:03:37;;;;;;;42.85;17.77;;;;;;;7.02;100.00;97594.13;10245614;29;20066;-76
2024/03/28 01:08:37;;;;;;;50.97;19.73;;;;;;;7.09;100.00;97588.09;10248699;28;20419;-76
2024/03/28 01:13:40;;;;;;;48.13;19.95;;;;;;;7.16;100.00;97599.75;10225800;29;20216;-77
2024/03/28 01:18:41;;;;;;;46.20;18.42;;;;;;;7.12;100.00;97591.25;10244430;28;20069;-77
2024/03/28 01:23:41;;;;;;;40.67;17.35;;;;;;;7.05;100.00;97588.44;10249686;29;20043;-77
2024/03/28 01:28:44;;;;;;;47.28;19.98;;;;;;;7.01;100.00;97586.28;10257627;28;20054;-77
2024/03/28 01:33:44;;;;;;;49.35;20.27;;;;;;;7.02;100.00;97590.59;10230452;29;20051;-77
2024/03/28 01:38:46;;;;;;;45.92;19.20;;;;;;;7.02;100.00;97588.78;10230438;28;20051;-77
2024/03/28 01:43:46;;;;;;;39.70;18.73;;;;;;;6.88;100.00;97589.44;10256193;29;20047;-77
2024/03/28 01:48:50;;;;;;;45.42;19.15;;;;;;;6.94;100.00;97590.59;10258639;28;20070;-76
2024/03/28 01:53:51;;;;;;;47.13;18.17;;;;;;;7.05;100.00;97593.78;10221730;29;20051;-76
2024/03/28 01:58:52;;;;;;;42.10;20.90;;;;;;;7.02;100.00;97585.25;10249948;28;20050;-77
2024/03/28 02:03:53;;;;;;;50.72;21.10;;;;;;;7.08;100.00;97584.59;10259908;29;20047;-77
2024/03/28 02:08:54;;;;;;;44.10;18.77;;;;;;;6.93;100.00;97579.09;10257994;28;20055;-78
2024/03/28 02:13:55;;;;;;;54.33;21.05;;;;;;;6.89;100.00;97571.63;10255553;29;20160;-77
2024/03/28 02:18:58;;;;;;;45.03;20.92;;;;;;;6.83;100.00;97567.78;10251738;28;20047;-77
2024/03/28 02:23:59;;;;;;;44.20;20.67;;;;;;;6.90;100.00;97558.09;10252500;29;20050;-78
2024/03/28 02:29:00;;;;;;;44.35;19.40;;;;;;;6.98;100.00;97552.75;10250148;28;20075;-77
2024/03/28 02:34:01;;;;;;;40.75;18.88;;;;;;;7.01;100.00;97552.41;10260958;28;20059;-77
2024/03/28 02:39:02;;;;;;;44.75;20.45;;;;;;;7.11;100.00;97557.56;10264936;28;20051;-78
2024/03/28 02:44:03;;;;;;;39.60;18.90;;;;;;;7.21;100.00;97549.34;10257316;28;20425;-78
2024/03/28 02:49:03;;;;;;;37.08;17.70;;;;;;;7.26;100.00;97541.66;10259715;28;20039;-77
2024/03/28 02:54:04;;;;;;;36.65;17.35;;;;;;;7.21;100.00;97528.84;10239678;29;20047;-78
2024/03/28 02:59:05;;;;;;;32.60;16.88;;;;;;;7.25;100.00;97527.47;10253979;28;20051;-77
2024/03/28 03:04:06;;;;;;;30.58;16.98;;;;;;;7.18;100.00;97534.50;10261010;29;20077;-77
2024/03/28 03:09:07;;;;;;;32.40;16.33;;;;;;;7.10;100.00;97533.69;10268275;28;20691;-77
2024/03/28 03:14:07;;;;;;;33.90;17.42;;;;;;;6.98;100.00;97534.06;10255123;29;20459;-77
2024/03/28 03:19:10;;;;;;;32.10;16.23;;;;;;;6.98;100.00;97543.91;10255136;28;20066;-78
2024/03/28 03:24:13;;;;;;;;;;;;;;;6.96;100.00;97552.06;10254050;29;20047;-77
2024/03/28 03:34:36;;;;;;;33.70;16.00;;;;;;;6.89;100.00;97535.09;10254584;29;20158;-77
2024/03/28 03:39:37;;;;;;;29.60;15.10;;;;;;;6.87;100.00;97528.22;10220540;28;20509;-78
2024/03/28 03:44:38;;;;;;;25.45;13.70;;;;;;;6.89;100.00;97529.75;10251404;29;20120;-78
2024/03/28 03:49:43;;;;;;;21.98;12.77;;;;;;;6.79;100.00;97526.41;10252589;28;20043;-77
2024/03/28 03:54:44;;;;;;;25.90;12.50;;;;;;;6.73;100.00;97521.75;10233902;29;20082;-78
2024/03/28 03:59:45;;;;;;;24.52;12.35;;;;;;;6.66;100.00;97520.75;10219049;28;20722;-78
2024/03/28 04:04:46;;;;;;;20.45;12.43;;;;;;;6.48;100.00;97510.28;10252289;29;20051;-78
2024/03/28 04:09:47;;;;;;;22.92;12.82;;;;;;;6.61;100.00;97505.28;10220542;28;20428;-77
2024/03/28 04:14:47;;;;;;;21.75;11.85;;;;;;;6.70;100.00;97495.44;10252672;29;20039;-78
2024/03/28 04:19:48;;;;;;;20.08;11.55;;;;;;;6.70;100.00;97492.75;10236057;28;20054;-78
2024/03/28 04:24:53;;;;;;;18.02;10.90;;;;;;;6.58;100.00;97485.13;10233872;29;20499;-78
2024/03/28 04:29:54;;;;;;;20.60;11.65;;;;;;;6.50;100.00;97473.59;10249826;28;20111;-78
2024/03/28 04:34:55;;;;;;;19.52;11.02;;;;;;;6.50;100.00;97468.28;10243473;29;20513;-78
2024/03/28 04:39:56;;;;;;;18.58;11.02;;;;;;;6.60;100.00;97476.94;10236244;28;20533;-77
2024/03/28 04:44:57;;;;;;;17.48;10.85;;;;;;;6.40;100.00;97476.47;10233907;29;20051;-78
2024/03/28 04:49:57;;;;;;;17.80;11.30;;;;;;;6.46;100.00;97472.28;10250803;28;20164;-78
2024/03/28 04:54:58;;;;;;;19.75;12.02;;;;;;;6.42;100.00;97479.81;10243978;29;20053;-77
2024/03/28 04:59:59;;;;;;;17.08;11.05;;;;;;;6.34;100.00;97471.81;10268939;28;20043;-77
2024/03/28 05:05:01;;;;;;;18.60;11.13;;;;;;;6.28;100.00;97460.00;10244600;29;20455;-77
2024/03/28 05:10:04;;;;;;;21.23;11.57;;;;;;;6.29;100.00;97456.31;10254170;28;20526;-78
2024/03/28 05:15:06;;;;;;;19.05;11.77;;;;;;;6.39;100.00;97450.81;10240390;29;20077;-78
2024/03/28 05:20:08;;;;;;;19.33;12.13;;;;;;;6.37;100.00;97442.97;10240054;28;20039;-78
2024/03/28 05:25:08;;;;;;;26.92;14.95;;;;;;;6.28;100.00;97437.81;10257913;28;20051;-79
2024/03/28 05:30:09;;;;;;;20.40;12.02;;;;;;;6.38;100.00;97419.81;10267591;28;20067;-78
2024/03/28 05:35:10;;;;;;;21.23;12.98;;;;;;;6.42;100.00;97409.63;10292887;28;20023;-77
2024/03/28 05:40:11;;;;;;;20.27;12.13;;;;;;;6.48;100.00;97400.97;10289809;28;20055;-77
2024/03/28 05:45:12;;;;;;;20.80;12.30;;;;;;;6.48;100.00;97383.13;10308854;28;20066;-77
2024/03/28 05:50:13;;;;;;;19.60;11.07;;;;;;;6.34;100.00;97378.53;10273906;28;20387;-78
2024/03/28 05:55:14;;;;;;;19.92;11.95;;;;;;;6.40;100.00;97373.31;10277385;28;20058;-78
2024/03/28 06:00:15;;;;;;;18.80;10.95;;;;;;;6.46;100.00;97363.81;10273529;28;20074;-78
2024/03/28 06:05:16;;;;;;;19.40;11.60;;;;;;;6.47;100.00;97354.78;10261859;29;20482;-78
2024/03/28 06:10:17;;;;;;;17.88;11.35;;;;;;;6.43;100.00;97350.81;10250830;29;20057;-78
2024/03/28 06:15:18;;;;;;;16.45;10.98;;;;;;;6.27;100.00;97342.88;10264841;28;20043;-79
2024/03/28 06:20:18;;;;;;;18.95;11.60;;;;;;;6.16;100.00;97339.56;10265931;28;20047;-77
2024/03/28 06:25:19;;;;;;;18.30;11.98;;;;;;;6.35;100.00;97349.00;10247921;29;20059;-77
2024/03/28 06:30:26;;;;;;;17.73;11.80;;;;;;;6.56;100.00;97360.97;10253372;28;20040;-77
2024/03/28 06:35:27;;;;;;;19.17;11.68;;;;;;;6.77;100.00;97361.19;10248523;28;20094;-77
2024/03/28 06:40:28;;;;;;;20.35;12.90;;;;;;;6.94;100.00;97359.31;10261575;28;20396;-78
2024/03/28 06:45:29;;;;;;;15.43;9.95;;;;;;;6.92;100.00;97360.50;10248673;29;20062;-77
2024/03/28 06:50:30;;;;;;;13.43;10.30;;;;;;;7.02;100.00;97363.75;10264575;28;20047;-78
2024/03/28 06:55:31;;;;;;;15.27;11.10;;;;;;;7.06;100.00;97352.56;10263390;28;20419;-78
2024/03/28 07:00:32;;;;;;;12.60;9.15;;;;;;;7.41;100.00;97361.03;10271306;28;20050;-78
2024/03/28 07:05:33;;;;;;;14.00;8.15;;;;;;;7.82;100.00;97362.56;10270342;29;20043;-78
2024/03/28 07:10:34;;;;;;;10.43;7.38;;;;;;;8.08;100.00;97364.81;10243736;29;20047;-78
2024/03/28 07:15:34;;;;;;;10.18;7.38;;;;;;;7.95;100.00;97382.31;10273607;28;20565;-78
2024/03/28 07:20:36;;;;;;;10.70;8.52;;;;;;;8.18;100.00;97370.72;10243313;29;20063;-78
2024/03/28 07:25:36;;;;;;;10.43;8.05;;;;;;;8.42;100.00;97358.09;10271546;28;20043;-78
2024/03/28 07:30:37;;;;;;;16.17;9.30;;;;;;;8.69;100.00;97340.59;10256787;28;20047;-76
2024/03/28 07:35:38;;;;;;;12.48;8.98;;;;;;;8.43;100.00;97341.06;10249783;28;20446;-77
2024/03/28 07:40:39;;;;;;;12.30;9.75;;;;;;;8.76;100.00;97330.81;10259959;28;20039;-77
2024/03/28 07:45:41;;;;;;;12.40;9.68;;;;;;;8.91;100.00;97317.41;10253589;28;20051;-77
2024/03/28 07:50:42;;;;;;;14.52;9.63;;;;;;;9.26;100.00;97313.03;10248575;28;20031;-77
2024/03/28 07:55:42;;;;;;;9.90;7.82;;;;;;;9.38;100.00;97314.22;10237373;28;20435;-77
2024/03/28 08:00:43;;;;;;;8.70;7.75;;;;;;;9.74;100.00;97318.66;10248515;28;20047;-77
2024/03/28 08:05:47;;;;;;;8.50;6.95;;;;;;;9.65;100.00;97314.44;10238797;28;20055;-78
2024/03/28 08:10:48;;;;;;;9.25;7.75;;;;;;;10.03;100.00;97340.97;10240527;28;20047;-78
2024/03/28 08:15:49;;;;;;;9.38;7.60;;;;;;;10.45;100.00;97318.56;10282044;28;20098;-77
2024/03/28 08:20:51;;;;;;;7.25;5.10;;;;;;;10.57;94.74;97316.97;10255989;28;20126;-77
2024/03/28 08:25:52;;;;;;;4.13;3.80;;;;;;;10.16;87.39;97303.50;10263642;28;20047;-78
2024/03/28 08:30:53;;;;;;;4.07;3.47;;;;;;;9.88;81.18;97303.53;10258711;28;20107;-77
2024/03/28 08:35:53;;;;;;;4.93;3.42;;;;;;;10.14;78.98;97305.56;10262519;28;20419;-77
2024/03/28 08:40:54;;;;;;;4.15;2.72;;;;;;;9.87;76.10;97283.94;10258276;28;20031;-77
2024/03/28 08:45:55;;;;;;;4.93;3.00;;;;;;;10.03;75.77;97287.34;10269682;28;20051;-78
2024/03/28 08:50:58;;;;;;;5.10;3.13;;;;;;;10.07;74.40;97284.06;10264337;28;20043;-77
2024/03/28 08:56:00;;;;;;;8.27;4.22;;;;;;;10.69;76.77;97285.00;10239177;28;20047;-78
2024/03/28 09:01:01;;;;;;;4.70;3.22;;;;;;;10.43;69.73;97291.09;10246401;28;20371;-78
2024/03/28 09:06:04;;;;;;;3.17;2.72;;;;;;;10.92;68.69;97282.00;10267740;28;20137;-79
2024/03/28 09:11:08;;;;;;;2.30;1.90;;;;;;;10.69;65.06;97285.00;10235078;28;20054;-79
2024/03/28 09:16:09;;;;;;;3.83;1.80;;;;;;;11.67;62.48;97263.13;10233275;28;20446;-78
2024/03/28 09:21:11;;;;;;;2.50;1.42;;;;;;;11.22;58.60;97274.47;10264964;28;20047;-77
2024/03/28 09:26:13;;;;;;;2.10;1.17;;;;;;;10.63;57.90;97287.66;10267453;28;20047;-78
2024/03/28 09:31:14;;;;;;;2.50;1.33;;;;;;;9.51;60.39;97298.22;10249632;28;20058;-78
2024/03/28 09:36:16;;;;;;;1.95;1.23;;;;;;;10.05;61.35;97285.28;10228454;28;20065;-77
2024/03/28 09:41:28;;;;;;;1.98;0.90;;;;;;;10.60;59.55;97327.28;10249508;28;20046;-77
2024/03/28 09:46:29;;;;;;;1.25;1.20;;;;;;;10.49;61.10;97260.78;10248567;28;20059;-78
2024/03/28 09:51:30;;;;;;;2.47;1.65;;;;;;;10.96;57.49;97263.63;10231826;28;20043;-78
2024/03/28 09:56:31;;;;;;;1.45;1.00;;;;;;;11.13;55.00;97254.16;10247937;28;20058;-78
2024/03/28 10:01:33;;;;;;;1.25;1.10;;;;;;;10.99;56.94;97255.16;10231018;28;20123;-77
2024/03/28 10:06:35;;;;;;;1.38;1.20;;;;;;;10.67;57.69;97264.75;10229610;28;20056;-78
2024/03/28 10:11:42;;;;;;;1.00;0.90;;;;;;;11.14;57.83;97269.28;10250499;28;20031;-78
2024/03/28 10:16:48;;;;;;;0.80;0.75;;;;;;;9.59;60.51;97288.41;10256088;28;20038;-78
2024/03/28 10:21:49;;;;;;;0.40;0.35;;;;;;;9.24;61.28;97296.34;10261553;28;20570;-78
2024/03/28 10:26:50;;;;;;;2.08;0.80;;;;;;;9.32;61.99;97309.59;10255929;28;20102;-77
2024/03/28 10:31:50;;;;;;;2.47;0.90;;;;;;;9.21;67.30;97344.91;10264669;28;20047;-76
2024/03/28 10:36:52;;;;;;;0.82;0.63;;;;;;;8.29;72.78;97380.97;10253894;28;20039;-77
2024/03/28 10:41:52;;;;;;;1.98;0.93;;;;;;;7.56;83.14;97387.78;10251497;28;20083;-76
2024/03/28 10:46:55;;;;;;;1.55;1.10;;;;;;;6.92;93.96;97427.19;10255118;28;20114;-76
2024/03/28 10:52:03;;;;;;;1.50;1.10;;;;;;;6.87;99.09;97421.50;10255965;28;20039;-78
2024/03/28 10:57:05;;;;;;;2.05;1.27;;;;;;;6.26;100.00;97440.66;10218047;28;20074;-78
2024/03/28 11:02:06;;;;;;;2.25;1.10;;;;;;;6.47;100.00;97437.44;10257162;28;20039;-78
2024/03/28 11:07:08;;;;;;;1.60;1.50;;;;;;;6.66;100.00;97454.91;10244406;28;20047;-76
2024/03/28 11:12:09;;;;;;;1.25;0.60;;;;;;;6.21;100.00;97452.84;10247306;28;20110;-77
2024/03/28 11:17:11;;;;;;;0.70;0.70;;;;;;;6.60;99.07;97466.25;10248111;28;20090;-76
2024/03/28 11:22:12;;;;;;;0.50;0.50;;;;;;;5.89;100.00;97486.47;10241055;28;20487;-76
2024/03/28 11:27:20;;;;;;;1.02;0.93;;;;;;;5.92;100.00;97499.44;10247569;28;20051;-76
2024/03/28 11:32:23;;;;;;;0.85;0.85;;;;;;;6.03;100.00;97504.44;10240800;28;20047;-77
2024/03/28 11:37:23;;;;;;;;;;;;;;;6.01;100.00;97511.78;10248751;28;20047;-77
2024/03/28 11:42:24;;;;;;;1.30;1.10;;;;;;;6.49;100.00;97504.78;10244611;28;19922;-77
2024/03/28 11:47:25;;;;;;;2.03;1.60;;;;;;;6.62;100.00;97514.94;10257556;28;20047;-78
2024/03/28 11:52:25;;;;;;;3.35;1.83;;;;;;;6.21;100.00;97528.28;10265257;28;20341;-78
2024/03/28 11:57:26;;;;;;;5.75;1.88;;;;;;;6.61;100.00;97531.94;10248294;28;20051;-79
2024/03/28 12:02:27;;;;;;;2.75;2.25;;;;;;;6.81;100.00;97549.25;10264972;28;20043;-78
2024/03/28 12:07:28;;;;;;;1.50;1.40;;;;;;;6.13;100.00;97547.75;10266702;28;20048;-78
2024/03/28 12:12:29;;;;;;;3.63;1.60;;;;;;;6.04;100.00;97563.94;10232419;28;20910;-78
2024/03/28 12:17:30;;;;;;;1.40;1.30;;;;;;;5.88;100.00;97549.56;10230948;28;20047;-78
2024/03/28 12:22:31;;;;;;;1.25;0.73;;;;;;;5.77;100.00;97573.84;10241778;28;20035;-77
2024/03/28 12:27:32;;;;;;;1.52;0.98;;;;;;;5.99;100.00;97563.59;10236949;28;20059;-77
2024/03/28 12:32:33;;;;;;;5.45;1.20;;;;;;;6.32;100.00;97554.63;10247611;28;20035;-77
2024/03/28 12:37:34;;;;;;;1.10;1.00;;;;;;;6.54;100.00;97562.94;10238333;28;20575;-78
2024/03/28 12:42:36;;;;;;;2.15;1.10;;;;;;;6.29;100.00;97583.44;10206162;28;20051;-78
2024/03/28 12:47:37;;;;;;;0.73;0.57;;;;;;;5.94;100.00;97594.19;10244767;28;20511;-77
2024/03/28 12:52:37;;;;;;;0.80;0.65;;;;;;;6.08;100.00;97618.53;10248930;28;20043;-77
2024/03/28 12:57:38;;;;;;;0.90;0.65;;;;;;;6.32;100.00;97602.59;10246656;28;20090;-77
2024/03/28 13:02:39;;;;;;;1.42;0.80;;;;;;;6.70;100.00;97610.94;10256751;28;20406;-77
2024/03/28 13:07:41;;;;;;;2.25;1.08;;;;;;;7.36;100.00;97624.25;10243411;28;20538;-77
2024/03/28 13:12:42;;;;;;;0.93;0.90;;;;;;;7.15;100.00;97625.59;10243370;28;20529;-78
2024/03/28 13:17:42;;;;;;;2.75;1.60;;;;;;;7.25;100.00;97625.44;10247144;28;20059;-77
2024/03/28 13:22:45;;;;;;;2.03;1.67;;;;;;;7.14;100.00;97642.63;10253483;28;20523;-78
2024/03/28 13:27:46;;;;;;;2.28;2.00;;;;;;;7.17;100.00;97644.97;10231955;28;20050;-78
2024/03/28 13:32:47;;;;;;;1.77;1.30;;;;;;;7.12;97.00;97657.97;10236189;28;20527;-78
2024/03/28 13:37:48;;;;;;;2.70;1.63;;;;;;;7.24;99.06;97701.16;10255693;28;20043;-79
2024/03/28 13:42:49;;;;;;;2.30;1.80;;;;;;;6.73;100.00;97693.31;10227337;28;20051;-78
2024/03/28 13:47:50;;;;;;;1.13;1.02;;;;;;;5.30;100.00;97736.69;10246820;28;20043;-77
2024/03/28 13:52:50;;;;;;;1.92;1.77;;;;;;;5.22;100.00;97704.69;10244828;28;20464;-78
2024/03/28 13:57:51;;;;;;;5.32;1.77;;;;;;;5.92;100.00;97715.25;10240092;28;20039;-78
2024/03/28 14:02:52;;;;;;;1.83;1.67;;;;;;;6.78;100.00;97719.50;10255865;28;20267;-77
2024/03/28 14:07:52;;;;;;;0.85;0.82;;;;;;;7.46;92.39;97727.19;10239132;28;20122;-78
2024/03/28 14:12:53;;;;;;;1.73;1.20;;;;;;;8.52;85.98;97733.22;10256419;28;20039;-78
2024/03/28 14:17:54;;;;;;;1.05;0.80;;;;;;;7.69;84.35;97746.00;10252972;28;20090;-77
2024/03/28 14:22:56;;;;;;;1.35;1.25;;;;;;;7.61;83.27;97764.72;10248915;28;20070;-77
2024/03/28 14:27:56;;;;;;;1.90;1.67;;;;;;;7.48;86.46;97762.56;10220207;28;20047;-78
2024/03/28 14:32:57;;;;;;;3.08;2.80;;;;;;;8.14;84.90;97746.38;10231794;28;20039;-77
2024/03/28 14:37:58;;;;;;;2.80;2.60;;;;;;;7.90;86.64;97753.50;10234461;28;20059;-77
2024/03/28 14:42:58;;;;;;;3.35;3.05;;;;;;;8.74;84.50;97747.63;10223548;28;20122;-77
2024/03/28 14:47:59;;;;;;;4.00;2.83;;;;;;;9.26;82.93;97757.63;10236846;28;20069;-78
2024/03/28 14:53:00;;;;;;;3.17;2.88;;;;;;;10.08;75.53;97760.38;10229709;28;20042;-79
2024/03/28 14:58:01;;;;;;;3.28;2.88;;;;;;;10.80;76.20;97758.81;10252445;28;20050;-77
2024/03/28 15:03:02;;;;;;;4.53;2.65;;;;;;;10.34;72.88;97775.19;10227253;28;20041;-78
2024/03/28 15:08:03;;;;;;;2.67;2.42;;;;;;;11.21;70.54;97768.97;10252998;28;20078;-78
2024/03/28 15:13:04;;;;;;;2.85;2.28;;;;;;;10.73;70.98;97779.38;10246460;28;20039;-79
2024/03/28 15:18:07;;;;;;;1.77;1.52;;;;;;;10.83;63.37;97791.50;10252483;28;20138;-78
2024/03/28 15:23:08;;;;;;;2.17;1.98;;;;;;;9.99;68.19;97785.63;10245821;28;20050;-79
2024/03/28 15:28:09;;;;;;;1.70;1.60;;;;;;;9.58;66.68;97811.97;10274762;28;20065;-78
2024/03/28 15:33:09;;;;;;;0.65;0.50;;;;;;;7.17;80.66;97855.03;10261824;28;20043;-78
2024/03/28 15:38:10;;;;;;;4.78;0.32;;;;;;;5.50;100.00;97873.09;10224634;28;20043;-77
2024/03/28 15:43:11;;;;;;;0.75;0.40;;;;;;;5.65;100.00;97858.28;10243728;28;20042;-77
2024/03/28 15:48:13;;;;;;;0.38;0.38;;;;;;;6.14;97.83;97855.94;10251464;28;20129;-76
2024/03/28 15:53:14;;;;;;;2.30;0.40;;;;;;;6.40;91.47;97874.56;10231730;28;20039;-79
2024/03/28 15:58:15;;;;;;;4.00;0.50;;;;;;;7.06;90.12;97885.53;10256622;28;20055;-76
2024/03/28 16:03:16;;;;;;;1.00;0.50;;;;;;;6.79;84.29;97891.91;10256386;28;20058;-78
2024/03/28 16:08:17;;;;;;;5.25;1.23;;;;;;;7.79;82.64;97879.44;10268099;28;20049;-78
2024/03/28 16:13:18;;;;;;;0.80;0.63;;;;;;;9.32;76.14;97890.84;10267345;28;20058;-76
2024/03/28 16:18:20;;;;;;;0.50;0.25;;;;;;;9.16;67.07;97889.13;10239682;28;20047;-77
2024/03/28 16:23:21;;;;;;;1.60;0.63;;;;;;;10.35;66.64;97889.53;10224328;28;20088;-79
2024/03/28 16:28:22;;;;;;;2.30;0.60;;;;;;;10.46;65.27;97896.31;10219496;28;20051;-77
2024/03/28 16:33:23;;;;;;;1.00;0.32;;;;;;;10.79;60.79;97894.91;10244112;28;20486;-77
2024/03/28 16:38:25;;;;;;;2.75;0.40;;;;;;;10.95;62.49;97909.16;10241524;28;20204;-77
2024/03/28 16:43:26;;;;;;;1.83;0.40;;;;;;;9.61;66.01;97916.13;10237460;28;20044;-78
2024/03/28 16:48:27;;;;;;;1.13;0.47;;;;;;;9.54;66.58;97928.56;10246770;28;20047;-77
2024/03/28 16:53:28;;;;;;;2.97;0.98;;;;;;;9.38;65.57;97935.69;10255147;28;20046;-77
2024/03/28 16:58:32;;;;;;;1.10;0.68;;;;;;;9.41;64.30;97937.19;10248819;28;20035;-76
2024/03/28 17:03:33;;;;;;;1.23;0.52;;;;;;;9.48;64.98;97938.13;10233965;28;20454;-77
2024/03/28 17:08:34;;;;;;;1.08;0.68;;;;;;;9.00;65.46;97935.53;10244718;28;20106;-77
2024/03/28 17:13:35;;;;;;;1.58;0.73;;;;;;;9.05;64.63;97948.38;10242929;28;20035;-77
2024/03/28 17:18:37;;;;;;;1.95;0.65;;;;;;;8.96;61.76;97960.97;10257581;28;20047;-76
2024/03/28 17:23:38;;;;;;;2.28;0.30;;;;;;;8.80;58.28;97966.38;10252278;28;20035;-77
2024/03/28 17:28:39;;;;;;;0.90;0.50;;;;;;;9.21;56.99;97959.03;10260961;28;20083;-77
2024/03/28 17:33:40;;;;;;;2.15;0.50;;;;;;;9.08;57.42;97972.16;10256477;28;20078;-76
2024/03/28 17:38:44;;;;;;;1.08;0.40;;;;;;;9.13;55.86;97979.66;10261020;28;20039;-77
2024/03/28 17:43:44;;;;;;;1.85;0.70;;;;;;;9.17;55.31;97984.50;10228824;29;20042;-77
2024/03/28 17:48:45;;;;;;;0.45;0.40;;;;;;;8.89;55.26;98002.84;10251320;28;20053;-77
2024/03/28 17:53:46;;;;;;;1.52;0.50;;;;;;;8.95;55.22;97999.47;10236567;28;20091;-77
2024/03/28 17:58:47;;;;;;;2.03;0.40;;;;;;;9.13;55.11;98015.31;10224245;28;20054;-77
2024/03/28 18:03:47;;;;;;;1.55;0.60;;;;;;;8.83;55.50;98024.94;10244380;29;20047;-78
2024/03/28 18:08:48;;;;;;;1.92;0.63;;;;;;;9.07;55.69;98042.78;10228666;28;20051;-78
2024/03/28 18:13:51;;;;;;;1.40;0.60;;;;;;;8.77;55.61;98063.91;10259936;28;20032;-77
2024/03/28 18:18:51;;;;;;;2.97;0.65;;;;;;;8.72;59.04;98090.38;10252851;28;20067;-78
2024/03/28 18:23:54;;;;;;;1.15;0.55;;;;;;;8.01;68.99;98098.94;10275635;28;20102;-78
2024/03/28 18:28:55;;;;;;;1.23;0.50;;;;;;;7.51;72.11;98108.63;10262345;28;20050;-78
2024/03/28 18:33:56;;;;;;;1.20;0.73;;;;;;;7.81;73.45;98107.25;10287954;28;20039;-79
2024/03/28 18:38:56;;;;;;;1.10;0.70;;;;;;;7.23;75.26;98114.16;10261128;28;20051;-78
2024/03/28 18:43:57;;;;;;;4.78;0.80;;;;;;;7.88;73.39;98104.78;10267129;29;20063;-79
2024/03/28 18:48:59;;;;;;;0.70;0.50;;;;;;;8.00;71.07;98095.44;10268013;28;20046;-79
2024/03/28 18:54:00;;;;;;;2.57;0.83;;;;;;;8.42;68.39;98093.66;10260540;29;20090;-79
2024/03/28 18:59:00;;;;;;;2.08;0.65;;;;;;;8.41;68.83;98116.91;10263313;28;20074;-79
2024/03/28 19:04:01;;;;;;;4.93;0.80;;;;;;;8.26;68.22;98132.78;10232908;29;20050;-77
2024/03/28 19:09:02;;;;;;;2.72;1.08;;;;;;;8.42;67.63;98126.63;10269055;28;20129;-79
2024/03/28 19:14:04;;;;;;;1.45;0.70;;;;;;;8.46;68.06;98119.13;10236005;29;20130;-77
2024/03/28 19:19:05;;;;;;;1.67;0.60;;;;;;;8.29;68.55;98116.41;10261288;28;20053;-78
2024/03/28 19:24:08;;;;;;;2.30;0.75;;;;;;;8.26;69.24;98123.94;10270493;29;20055;-78
2024/03/28 19:29:09;;;;;;;3.05;0.95;;;;;;;8.21;68.93;98120.91;10261619;28;20054;-78
2024/03/28 19:34:10;;;;;;;1.20;0.90;;;;;;;8.13;68.97;98119.88;10252428;29;20050;-79
2024/03/28 19:39:11;;;;;;;2.65;1.10;;;;;;;8.08;69.51;98124.03;10260518;28;20066;-79
2024/03/28 19:44:11;;;;;;;1.92;0.75;;;;;;;7.94;70.29;98131.69;10259376;28;20041;-78
2024/03/28 19:49:12;;;;;;;1.00;0.90;;;;;;;7.87;70.91;98129.81;10244271;28;20074;-78
2024/03/28 19:54:13;;;;;;;2.63;1.10;;;;;;;7.79;70.97;98129.78;10270312;28;20043;-79
2024/03/28 19:59:14;;;;;;;1.85;1.10;;;;;;;7.76;71.26;98146.97;10283430;28;20043;-79
2024/03/28 20:04:16;;;;;;;2.67;1.52;;;;;;;7.68;71.51;98155.81;10319957;28;20043;-78
2024/03/28 20:09:17;;;;;;;2.45;1.65;;;;;;;7.66;70.96;98165.00;10280738;29;20051;-79
2024/03/28 20:14:18;;;;;;;1.50;1.40;;;;;;;7.68;70.49;98168.34;10261164;28;20046;-78
2024/03/28 20:19:19;;;;;;;1.20;1.10;;;;;;;7.73;70.28;98176.69;10269099;28;20055;-78
2024/03/28 20:24:19;;;;;;;1.20;0.98;;;;;;;7.67;69.97;98188.03;10257733;29;20110;-78
2024/03/28 20:29:20;;;;;;;3.28;0.85;;;;;;;7.59;69.35;98182.66;10263187;28;20470;-78
2024/03/28 20:34:22;;;;;;;2.33;1.02;;;;;;;7.52;69.65;98192.31;10253927;28;20091;-78
2024/03/28 20:39:23;;;;;;;2.35;0.82;;;;;;;7.41;70.04;98196.09;10285650;28;20047;-78
2024/03/28 20:44:26;;;;;;;0.90;0.70;;;;;;;7.62;69.94;98176.97;10276638;28;20031;-79
2024/03/28 20:49:26;;;;;;;3.35;0.73;;;;;;;7.61;69.49;98175.31;10260568;28;20043;-78
2024/03/28 20:54:27;;;;;;;3.63;0.68;;;;;;;7.58;69.58;98179.16;10259870;28;20060;-79
2024/03/28 20:59:28;;;;;;;3.22;0.90;;;;;;;7.52;69.91;98171.78;10239588;28;20035;-78
2024/03/28 21:04:32;;;;;;;2.63;0.80;;;;;;;7.47;70.42;98182.91;10238559;29;20046;-78
2024/03/28 21:14:53;;;;;;;2.53;1.10;;;;;;;7.07;71.51;98191.50;10252508;28;20040;-78
2024/03/28 21:19:55;;;;;;;2.50;0.70;;;;;;;7.54;69.61;98193.81;10254800;28;20172;-79
2024/03/28 21:24:56;;;;;;;8.10;1.00;;;;;;;7.19;70.92;98211.63;10264433;28;20124;-78
2024/03/28 21:29:57;;;;;;;10.15;1.85;;;;;;;7.37;70.60;98224.09;10274561;28;20126;-78
2024/03/28 21:35:04;;;;;;;7.22;1.13;;;;;;;7.36;70.29;98235.78;10240617;29;20051;-78
2024/03/28 21:40:06;;;;;;;3.28;0.80;;;;;;;7.39;70.12;98244.31;10254935;28;20043;-78
2024/03/28 21:45:07;;;;;;;1.85;0.65;;;;;;;7.36;69.38;98241.94;10257517;28;20400;-77
2024/03/28 21:50:09;;;;;;;1.90;1.00;;;;;;;7.58;68.17;98256.63;10241714;28;20453;-79
2024/03/28 21:55:10;;;;;;;3.22;1.08;;;;;;;7.59;67.83;98258.28;10264287;29;20110;-78
2024/03/28 22:00:12;;;;;;;3.22;0.80;;;;;;;7.27;69.53;98258.91;10260792;28;20086;-78
2024/03/28 22:05:12;;;;;;;2.33;0.70;;;;;;;7.45;68.16;98277.56;10268298;28;20043;-78
2024/03/28 22:10:13;;;;;;;7.00;0.82;;;;;;;7.38;68.14;98292.53;10278393;28;20062;-77
2024/03/28 22:15:14;;;;;;;4.30;1.10;;;;;;;7.38;68.00;98290.72;10267890;28;20035;-78
2024/03/28 22:20:15;;;;;;;4.30;0.98;;;;;;;7.38;67.56;98301.38;10278075;28;20563;-78
2024/03/28 22:25:16;;;;;;;2.15;0.77;;;;;;;7.19;68.05;98307.75;10273801;28;20047;-78
2024/03/28 22:37:11;;;;;;;1.52;0.60;;;;;;;7.38;67.10;98324.59;10268982;28;1195279;-78
2024/03/28 22:42:11;;;;;;;2.10;0.85;;;;;;;7.62;66.30;98329.28;10310604;28;20521;-78
2024/03/28 22:47:12;;;;;;;1.08;0.60;;;;;;;7.72;65.50;98317.50;10308202;28;20420;-78
2024/03/28 22:52:13;;;;;;;3.05;0.68;;;;;;;7.45;65.62;98333.66;10290847;28;20183;-78
2024/03/28 22:57:13;;;;;;;3.35;0.95;;;;;;;7.85;64.22;98319.75;10307944;28;20115;-78
2024/03/28 23:02:15;;;;;;;6.97;0.80;;;;;;;7.50;65.51;98316.16;10306871;28;20528;-78
2024/03/28 23:07:16;;;;;;;3.80;1.00;;;;;;;7.65;65.36;98324.47;10294661;28;20113;-78
2024/03/28 23:12:16;;;;;;;4.15;0.80;;;;;;;7.55;65.40;98331.75;10316523;28;20081;-77
2024/03/28 23:17:17;;;;;;;1.73;1.10;;;;;;;7.41;65.64;98334.97;10290486;28;20054;-79
2024/03/28 23:22:18;;;;;;;3.70;0.88;;;;;;;7.72;64.44;98335.38;10301202;28;20039;-79
2024/03/28 23:27:19;;;;;;;2.03;0.73;;;;;;;7.66;64.65;98333.31;10301378;28;20404;-78
2024/03/28 23:32:19;;;;;;;2.72;0.98;;;;;;;7.54;64.65;98334.56;10303053;28;20047;-78
2024/03/28 23:37:20;;;;;;;4.32;0.65;;;;;;;7.65;64.39;98340.50;10315542;28;20050;-79